createdAt,value
2023-08-07T00:00:00.000Z,15.47
2023-08-07T00:15:00.000Z,15.58
2023-08-07T00:30:00.000Z,15.71
2023-08-07T00:45:00.000Z,15.38
2023-08-07T01:00:00.000Z,15.42
2023-08-07T01:15:00.000Z,15.11
2023-08-07T01:30:00.000Z,14.75
2023-08-07T01:45:00.000Z,14.31
2023-08-07T02:00:00.000Z,14.03
2023-08-07T02:15:00.000Z,13.92
2023-08-07T02:30:00.000Z,13.87
2023-08-07T02:45:00.000Z,13.64
2023-08-07T03:00:00.000Z,13.4
2023-08-07T03:15:00.000Z,13.05
2023-08-07T03:30:00.000Z,12.8
2023-08-07T03:45:00.000Z,12.59
2023-08-07T04:00:00.000Z,12.52
2023-08-07T04:15:00.000Z,12.35
2023-08-07T04:30:00.000Z,12.4
2023-08-07T04:45:00.000Z,12.5
2023-08-07T05:00:00.000Z,12.65
2023-08-07T05:15:00.000Z,12.7
2023-08-07T05:30:00.000Z,12.73
2023-08-07T05:45:00.000Z,13.02
2023-08-07T06:00:00.000Z,13.48
2023-08-07T06:15:00.000Z,13.84
2023-08-07T06:30:00.000Z,14.02
2023-08-07T06:45:00.000Z,14.29
2023-08-07T07:00:00.000Z,14.5
2023-08-07T07:15:00.000Z,14.95
2023-08-07T07:30:00.000Z,15.36
2023-08-07T07:45:00.000Z,15.75
2023-08-07T08:00:00.000Z,15.87
2023-08-07T08:15:00.000Z,15.86
2023-08-07T08:30:00.000Z,16.22
2023-08-07T08:45:00.000Z,16.74
2023-08-07T09:00:00.000Z,17.06
2023-08-07T09:15:00.000Z,16.97
2023-08-07T09:30:00.000Z,17.22
2023-08-07T09:45:00.000Z,17.29
2023-08-07T10:00:00.000Z,17.48
2023-08-07T10:15:00.000Z,17.54
2023-08-07T10:30:00.000Z,17.3
2023-08-07T10:45:00.000Z,17.18
2023-08-07T11:00:00.000Z,17.37
2023-08-07T11:15:00.000Z,17.55
2023-08-07T11:30:00.000Z,17.98
2023-08-07T11:45:00.000Z,18.25
2023-08-07T12:00:00.000Z,18.67
2023-08-07T12:15:00.000Z,19.62
2023-08-07T12:30:00.000Z,19.39
2023-08-07T12:45:00.000Z,19.01
2023-08-07T13:00:00.000Z,17.75
2023-08-07T13:15:00.000Z,16.74
2023-08-07T13:30:00.000Z,16.5
2023-08-07T13:45:00.000Z,16.61
2023-08-07T14:00:00.000Z,16.36
2023-08-07T14:15:00.000Z,15.93
2023-08-07T14:30:00.000Z,16.12
2023-08-07T14:45:00.000Z,16.49
2023-08-07T15:00:00.000Z,16.51
2023-08-07T15:15:00.000Z,16.71
2023-08-07T15:30:00.000Z,17.13
2023-08-07T15:45:00.000Z,16.86
2023-08-07T16:00:00.000Z,16.83
2023-08-07T16:15:00.000Z,16.92
2023-08-07T16:30:00.000Z,16.68
2023-08-07T16:45:00.000Z,16.5
2023-08-07T17:00:00.000Z,16.45
2023-08-07T17:15:00.000Z,16.22
2023-08-07T17:30:00.000Z,16.01
2023-08-07T17:45:00.000Z,15.82
2023-08-07T18:00:00.000Z,15.71
2023-08-07T18:15:00.000Z,15.69
2023-08-07T18:30:00.000Z,15.56
2023-08-07T18:45:00.000Z,15.22
2023-08-07T19:00:00.000Z,14.96
2023-08-07T19:15:00.000Z,14.96
2023-08-07T19:30:00.000Z,15.11
2023-08-07T19:45:00.000Z,15.11
2023-08-07T20:00:00.000Z,15.14
2023-08-07T20:15:00.000Z,15.26
2023-08-07T20:30:00.000Z,15.24
2023-08-07T20:45:00.000Z,14.93
2023-08-07T21:00:00.000Z,14.79
2023-08-07T21:15:00.000Z,14.81
2023-08-07T21:30:00.000Z,15.46
2023-08-07T21:45:00.000Z,14.96
2023-08-07T22:00:00.000Z,14.66
2023-08-07T22:15:00.000Z,14.52
2023-08-07T22:30:00.000Z,14.43
2023-08-07T22:45:00.000Z,14.22
2023-08-07T23:00:00.000Z,14.22
2023-08-07T23:15:00.000Z,14.12
2023-08-07T23:30:00.000Z,14.09
2023-08-07T23:45:00.000Z,14.01
